createdAt,value
2023-04-07T00:00:05.227Z,19.37
2023-04-07T00:02:34.019Z,20.87
2023-04-07T00:05:03.274Z,20.00
2023-04-07T00:07:33.829Z,20.70
2023-04-07T00:10:06.756Z,20.07
2023-04-07T00:12:36.177Z,20.87
2023-04-07T00:15:06.967Z,21.20
2023-04-07T00:17:35.681Z,20.93
2023-04-07T00:20:04.541Z,22.70
2023-04-07T00:22:33.574Z,23.37
2023-04-07T00:25:02.175Z,23.00
2023-04-07T00:27:30.853Z,23.77
2023-04-07T00:29:59.516Z,24.03
2023-04-07T00:32:29.815Z,24.37
2023-04-07T00:34:58.487Z,25.10
2023-04-07T00:37:31.014Z,25.77
2023-04-07T00:39:59.839Z,26.67
2023-04-07T00:42:28.709Z,25.70
2023-04-07T00:44:57.348Z,26.77
2023-04-07T00:47:26.287Z,23.73
2023-04-07T00:49:56.432Z,25.77
2023-04-07T00:52:30.279Z,27.37
2023-04-07T00:54:59.095Z,26.63
2023-04-07T00:57:27.906Z,26.00
2023-04-07T00:59:57.589Z,24.37
2023-04-07T01:02:35.353Z,26.90
2023-04-07T01:05:13.434Z,26.97
2023-04-07T01:07:50.832Z,27.63
2023-04-07T01:10:27.874Z,26.33
2023-04-07T01:13:03.759Z,28.00
2023-04-07T01:15:34.365Z,27.97
2023-04-07T01:18:09.878Z,28.30
2023-04-07T01:20:41.167Z,28.30
2023-04-07T01:23:10.432Z,29.63
2023-04-07T01:26:02.344Z,27.73
2023-04-07T01:28:46.077Z,28.00
2023-04-07T01:31:16.987Z,28.07
2023-04-07T01:33:47.636Z,30.23
2023-04-07T01:36:17.838Z,29.20
2023-04-07T01:38:47.393Z,27.63
2023-04-07T01:41:18.225Z,29.23
2023-04-07T01:43:48.898Z,28.07
2023-04-07T01:46:18.909Z,30.67
2023-04-07T01:48:48.494Z,30.27
2023-04-07T01:51:19.134Z,30.53
2023-04-07T01:53:48.355Z,28.10
2023-04-07T01:56:17.352Z,29.77
2023-04-07T01:58:45.894Z,29.40
2023-04-07T02:01:15.782Z,28.03
2023-04-07T02:03:54.556Z,30.03
2023-04-07T02:06:29.784Z,31.30
2023-04-07T02:09:04.454Z,32.80
2023-04-07T02:11:35.816Z,30.63
2023-04-07T02:14:07.773Z,31.97
2023-04-07T02:16:38.018Z,31.00
2023-04-07T02:19:08.276Z,30.30
2023-04-07T02:21:38.237Z,32.67
2023-04-07T02:24:08.478Z,30.43
2023-04-07T02:26:37.627Z,31.93
2023-04-07T02:29:06.541Z,31.90
2023-04-07T02:31:35.752Z,30.97
2023-04-07T02:34:04.392Z,32.50
2023-04-07T02:36:34.421Z,33.03
2023-04-07T02:39:03.003Z,36.33
2023-04-07T02:41:31.849Z,36.67
2023-04-07T02:44:00.450Z,35.07
2023-04-07T02:46:29.090Z,35.40
2023-04-07T02:48:57.694Z,32.83
2023-04-07T02:51:27.254Z,31.37
2023-04-07T02:53:57.352Z,31.67
2023-04-07T02:56:26.018Z,31.53
2023-04-07T02:58:54.662Z,33.70
2023-04-07T03:01:23.300Z,34.67
2023-04-07T03:03:52.276Z,43.47
2023-04-07T03:06:21.328Z,37.73
2023-04-07T03:08:49.843Z,36.40
2023-04-07T03:11:19.735Z,36.10
2023-04-07T03:13:48.323Z,38.63
2023-04-07T03:16:16.890Z,36.50
2023-04-07T03:18:45.605Z,34.80
2023-04-07T03:21:14.832Z,36.00
2023-04-07T03:23:43.686Z,35.00
2023-04-07T03:26:12.126Z,36.17
2023-04-07T03:28:42.146Z,33.90
2023-04-07T03:31:10.618Z,34.17
2023-04-07T03:33:39.287Z,33.87
2023-04-07T03:36:09.681Z,33.87
2023-04-07T03:38:38.303Z,33.80
2023-04-07T03:41:06.806Z,33.40
2023-04-07T03:43:35.384Z,31.13
2023-04-07T03:46:05.506Z,30.30
2023-04-07T03:48:34.079Z,31.83
2023-04-07T03:51:03.109Z,29.77
2023-04-07T03:53:31.656Z,29.83
2023-04-07T03:56:01.137Z,29.70
2023-04-07T03:58:29.747Z,30.43
2023-04-07T04:00:58.575Z,33.47
2023-04-07T04:03:28.824Z,30.10
2023-04-07T04:05:57.481Z,30.77
2023-04-07T04:08:25.998Z,29.67
2023-04-07T04:10:54.898Z,30.33
2023-04-07T04:13:23.447Z,29.03
2023-04-07T04:15:52.580Z,28.97
2023-04-07T04:18:21.270Z,30.00
2023-04-07T04:20:51.828Z,27.73
2023-04-07T04:23:20.286Z,27.47
2023-04-07T04:25:48.891Z,29.43
2023-04-07T04:28:17.420Z,27.97
2023-04-07T04:30:45.875Z,27.90
2023-04-07T04:33:14.332Z,26.23
2023-04-07T04:35:43.113Z,27.17
2023-04-07T04:38:13.513Z,27.80
2023-04-07T04:40:42.011Z,26.33
2023-04-07T04:43:10.641Z,25.13
2023-04-07T04:45:39.158Z,26.03
2023-04-07T04:48:07.988Z,25.33
2023-04-07T04:50:37.401Z,23.80
2023-04-07T04:53:05.880Z,23.50
2023-04-07T04:55:35.790Z,24.27
2023-04-07T04:58:04.349Z,25.17
2023-04-07T05:00:33.139Z,24.47
2023-04-07T05:03:03.366Z,23.57
2023-04-07T05:05:32.072Z,22.00
2023-04-07T05:08:47.758Z,24.33
2023-04-07T05:11:19.069Z,22.33
2023-04-07T05:13:47.618Z,21.83
2023-04-07T05:16:16.066Z,24.40
2023-04-07T05:18:44.687Z,23.07
2023-04-07T05:21:13.508Z,24.63
2023-04-07T05:23:42.643Z,23.50
2023-04-07T05:26:11.545Z,22.60
2023-04-07T05:28:41.596Z,23.53
2023-04-07T05:31:10.527Z,21.57
2023-04-07T05:33:39.035Z,22.93
2023-04-07T05:36:08.337Z,23.03
2023-04-07T05:38:36.925Z,24.30
2023-04-07T05:41:05.922Z,24.23
2023-04-07T05:43:34.447Z,22.87
2023-04-07T05:46:04.617Z,23.30
2023-04-07T05:48:33.751Z,22.30
2023-04-07T05:51:02.353Z,21.60
2023-04-07T05:53:31.060Z,21.67
2023-04-07T05:56:00.675Z,22.43
2023-04-07T05:58:29.319Z,21.03
2023-04-07T06:03:51.141Z,20.10
2023-04-07T06:06:20.057Z,20.97
2023-04-07T06:08:48.845Z,20.00
2023-04-07T06:11:17.858Z,19.77
2023-04-07T06:13:46.996Z,19.53
2023-04-07T06:16:17.469Z,22.17
2023-04-07T06:18:47.823Z,19.67
2023-04-07T06:21:17.946Z,20.33
2023-04-07T06:23:46.695Z,21.07
2023-04-07T06:26:15.984Z,20.30
2023-04-07T06:28:45.206Z,19.70
2023-04-07T06:31:14.034Z,19.70
2023-04-07T06:33:42.880Z,20.27
2023-04-07T06:36:11.638Z,20.00
2023-04-07T06:38:42.127Z,20.27
2023-04-07T06:41:13.229Z,20.93
2023-04-07T06:43:42.218Z,19.47
2023-04-07T06:46:11.417Z,20.97
2023-04-07T06:48:40.597Z,21.17
2023-04-07T06:51:09.384Z,20.80
2023-04-07T06:53:38.280Z,20.87
2023-04-07T06:56:10.236Z,20.47
2023-04-07T06:58:39.775Z,20.97
2023-04-07T07:01:09.471Z,22.00
2023-04-07T07:03:38.735Z,22.60
2023-04-07T07:06:11.374Z,23.97
2023-04-07T07:08:40.280Z,24.93
2023-04-07T07:11:11.659Z,24.50
2023-04-07T07:13:40.787Z,23.33
2023-04-07T07:16:09.763Z,23.87
2023-04-07T07:18:38.771Z,25.37
2023-04-07T07:21:08.287Z,24.53
2023-04-07T07:23:37.017Z,26.60
2023-04-07T07:26:06.427Z,25.07
2023-04-07T07:28:37.473Z,24.03
2023-04-07T07:31:13.323Z,26.50
2023-04-07T07:33:44.733Z,27.13
2023-04-07T07:36:13.985Z,27.30
2023-04-07T07:38:42.780Z,27.30
2023-04-07T07:41:11.822Z,27.67
2023-04-07T07:43:42.297Z,26.83
2023-04-07T07:46:11.293Z,27.63
2023-04-07T07:48:40.531Z,27.37
2023-04-07T07:51:14.749Z,28.13
2023-04-07T07:53:43.564Z,26.37
2023-04-07T07:56:13.281Z,26.60
2023-04-07T07:58:43.592Z,26.10
2023-04-07T08:01:12.430Z,25.10
2023-04-07T08:03:41.663Z,24.57
2023-04-07T08:06:13.468Z,24.97
2023-04-07T08:08:45.110Z,22.83
2023-04-07T08:11:14.484Z,23.80
2023-04-07T08:13:46.954Z,23.10
2023-04-07T08:16:16.316Z,22.57
2023-04-07T08:18:45.495Z,21.77
2023-04-07T08:21:14.992Z,21.80
2023-04-07T08:23:43.736Z,21.73
2023-04-07T08:26:12.651Z,21.37
2023-04-07T08:28:42.205Z,20.53
2023-04-07T08:31:12.550Z,18.83
2023-04-07T08:33:42.074Z,19.43
2023-04-07T08:36:11.339Z,17.53
2023-04-07T08:38:40.278Z,17.20
2023-04-07T08:41:13.506Z,18.30
2023-04-07T08:43:47.428Z,17.13
2023-04-07T08:46:23.103Z,17.33
2023-04-07T08:48:53.999Z,17.67
2023-04-07T08:51:30.182Z,15.73
2023-04-07T08:54:06.986Z,15.60
2023-04-07T08:56:37.123Z,14.37
2023-04-07T08:59:08.700Z,14.00
2023-04-07T09:01:39.369Z,13.43
2023-04-07T09:04:09.239Z,11.67
2023-04-07T09:06:38.094Z,10.23
2023-04-07T09:09:07.497Z,10.30
2023-04-07T09:11:38.677Z,10.07
2023-04-07T09:14:07.992Z,10.27
2023-04-07T09:16:38.427Z,10.10
2023-04-07T09:19:08.136Z,9.30
2023-04-07T09:21:50.802Z,9.70
2023-04-07T09:24:27.206Z,9.60
2023-04-07T09:27:17.066Z,9.13
2023-04-07T09:29:48.163Z,8.27
2023-04-07T09:32:36.907Z,8.30
2023-04-07T09:35:06.897Z,7.43
2023-04-07T09:37:35.862Z,8.10
2023-04-07T09:40:09.307Z,8.03
2023-04-07T09:42:46.517Z,7.30
2023-04-07T09:45:34.058Z,7.77
2023-04-07T09:48:09.319Z,7.43
2023-04-07T09:50:41.584Z,7.10
2023-04-07T09:53:10.841Z,7.57
2023-04-07T09:55:42.868Z,7.37
2023-04-07T09:58:19.025Z,8.10
2023-04-07T10:00:48.403Z,7.53
2023-04-07T10:03:20.136Z,8.03
2023-04-07T10:05:49.859Z,7.73
2023-04-07T10:08:20.244Z,8.90
2023-04-07T10:10:51.563Z,9.37
2023-04-07T10:13:20.989Z,9.77
2023-04-07T10:15:50.252Z,8.57
2023-04-07T10:18:22.459Z,8.73
2023-04-07T10:20:52.085Z,9.30
2023-04-07T10:23:27.459Z,8.70
2023-04-07T10:25:58.864Z,9.20
2023-04-07T10:28:30.655Z,9.30
2023-04-07T10:31:00.513Z,9.60
2023-04-07T10:33:50.195Z,9.53
2023-04-07T10:36:23.383Z,9.73
2023-04-07T10:39:22.748Z,9.93
2023-04-07T10:41:52.204Z,10.07
2023-04-07T10:44:55.297Z,10.30
2023-04-07T10:47:27.618Z,10.67
2023-04-07T10:50:23.908Z,10.23
2023-04-07T10:53:08.848Z,11.63
2023-04-07T10:55:40.283Z,12.57
2023-04-07T10:58:29.702Z,11.67
2023-04-07T11:01:22.560Z,11.53
2023-04-07T11:04:02.876Z,11.80
2023-04-07T11:06:33.340Z,11.23
2023-04-07T11:09:02.418Z,12.40
2023-04-07T11:11:42.697Z,10.37
2023-04-07T11:14:11.860Z,11.20
2023-04-07T11:16:46.343Z,11.00
2023-04-07T11:19:17.155Z,10.33
2023-04-07T11:21:47.727Z,10.20
2023-04-07T11:24:34.202Z,11.03
2023-04-07T11:27:03.818Z,9.97
2023-04-07T11:29:33.427Z,10.90
2023-04-07T11:32:03.707Z,12.60
2023-04-07T11:34:33.371Z,13.03
2023-04-07T11:37:22.678Z,13.07
2023-04-07T11:39:54.551Z,12.43
2023-04-07T11:42:34.236Z,12.30
2023-04-07T11:45:03.357Z,12.23
2023-04-07T11:47:42.221Z,10.80
2023-04-07T11:50:14.284Z,10.27
2023-04-07T11:52:46.161Z,10.10
2023-04-07T11:55:22.443Z,10.30
2023-04-07T11:57:52.263Z,8.37
2023-04-07T12:00:22.063Z,10.23
2023-04-07T12:02:51.725Z,13.60
2023-04-07T12:05:21.136Z,10.63
2023-04-07T12:07:57.934Z,7.90
2023-04-07T12:10:27.533Z,10.63
2023-04-07T12:12:58.153Z,6.80
2023-04-07T12:15:28.296Z,22.80
2023-04-07T12:17:57.654Z,24.60
2023-04-07T12:20:26.621Z,10.70
2023-04-07T12:22:56.877Z,6.00
2023-04-07T12:25:26.103Z,5.93
2023-04-07T12:27:54.774Z,5.67
2023-04-07T12:30:23.802Z,5.80
2023-04-07T12:32:53.058Z,6.03
2023-04-07T12:35:22.113Z,6.00
2023-04-07T12:37:52.158Z,5.40
2023-04-07T12:40:25.566Z,5.30
2023-04-07T12:42:54.268Z,5.37
2023-04-07T12:45:23.731Z,5.30
2023-04-07T12:47:52.790Z,5.93
2023-04-07T12:50:21.913Z,5.50
2023-04-07T12:52:51.384Z,5.83
2023-04-07T12:55:21.769Z,5.83
2023-04-07T12:57:50.589Z,6.10
2023-04-07T13:00:19.718Z,6.50
2023-04-07T13:02:48.712Z,6.40
2023-04-07T13:05:17.666Z,6.20
2023-04-07T13:07:48.291Z,6.70
2023-04-07T13:10:18.897Z,6.30
2023-04-07T13:12:49.734Z,6.20
2023-04-07T13:15:18.554Z,7.23
2023-04-07T13:17:48.055Z,7.20
2023-04-07T13:20:20.177Z,6.80
2023-04-07T13:23:02.897Z,7.47
2023-04-07T13:25:34.685Z,8.10
2023-04-07T13:28:05.002Z,7.60
2023-04-07T13:30:34.120Z,8.10
2023-04-07T13:33:03.340Z,8.13
2023-04-07T13:35:36.089Z,8.17
2023-04-07T13:38:05.028Z,7.50
2023-04-07T13:40:35.615Z,8.43
2023-04-07T13:43:06.725Z,8.73
2023-04-07T13:45:36.892Z,8.63
2023-04-07T13:48:06.692Z,8.13
2023-04-07T13:50:38.589Z,8.63
2023-04-07T13:53:07.617Z,8.70
2023-04-07T13:55:37.075Z,8.93
2023-04-07T13:58:07.797Z,9.30
2023-04-07T14:00:38.574Z,9.97
2023-04-07T14:03:08.664Z,9.80
2023-04-07T14:05:38.131Z,10.43
2023-04-07T14:08:06.961Z,10.10
2023-04-07T14:10:38.605Z,10.87
2023-04-07T14:13:08.949Z,9.87
2023-04-07T14:15:40.434Z,10.63
2023-04-07T14:18:09.625Z,10.37
2023-04-07T14:20:39.010Z,10.90
2023-04-07T14:23:07.972Z,10.80
2023-04-07T14:25:36.780Z,11.23
2023-04-07T14:28:08.385Z,10.43
2023-04-07T14:30:39.689Z,11.33
2023-04-07T14:33:08.993Z,11.17
2023-04-07T14:35:38.967Z,10.90
2023-04-07T14:38:07.769Z,10.87
2023-04-07T14:40:36.970Z,11.20
2023-04-07T14:43:07.705Z,11.53
2023-04-07T14:45:39.109Z,11.67
2023-04-07T14:48:08.602Z,11.07
2023-04-07T14:50:40.690Z,11.23
2023-04-07T14:53:09.641Z,11.10
2023-04-07T14:55:38.435Z,11.10
2023-04-07T14:58:07.840Z,11.03
2023-04-07T15:00:38.309Z,10.40
2023-04-07T15:03:07.373Z,10.00
2023-04-07T15:05:36.740Z,10.40
2023-04-07T15:08:05.707Z,10.90
2023-04-07T15:10:36.305Z,10.97
2023-04-07T15:13:05.486Z,10.23
2023-04-07T15:15:34.591Z,10.43
2023-04-07T15:18:05.152Z,10.07
2023-04-07T15:20:34.095Z,11.13
2023-04-07T15:23:02.836Z,10.70
2023-04-07T15:25:31.829Z,10.10
2023-04-07T15:28:00.651Z,10.17
2023-04-07T15:30:29.749Z,9.87
2023-04-07T15:33:00.552Z,9.90
2023-04-07T15:35:30.871Z,9.77
2023-04-07T15:38:00.389Z,10.73
2023-04-07T15:40:29.348Z,9.80
2023-04-07T15:42:58.133Z,9.87
2023-04-07T15:45:27.233Z,9.30
2023-04-07T15:47:56.348Z,8.63
2023-04-07T15:50:28.545Z,7.80
2023-04-07T15:52:58.766Z,8.70
2023-04-07T15:55:27.700Z,8.37
2023-04-07T15:57:56.945Z,7.20
2023-04-07T16:00:28.695Z,7.33
2023-04-07T16:02:58.202Z,7.10
2023-04-07T16:05:27.040Z,6.93
2023-04-07T16:07:57.755Z,6.73
2023-04-07T16:10:26.710Z,6.43
2023-04-07T16:12:55.676Z,6.73
2023-04-07T16:15:39.405Z,7.17
2023-04-07T16:18:10.527Z,8.00
2023-04-07T16:20:39.403Z,7.43
2023-04-07T16:23:10.704Z,7.13
2023-04-07T16:25:53.949Z,8.03
2023-04-07T16:28:22.763Z,6.40
2023-04-07T16:30:57.871Z,7.43
2023-04-07T16:33:28.354Z,8.00
2023-04-07T16:35:57.387Z,13.13
2023-04-07T16:38:29.496Z,7.33
2023-04-07T16:41:04.321Z,6.80
2023-04-07T16:43:34.384Z,6.30
2023-04-07T16:46:06.125Z,6.37
2023-04-07T16:48:35.184Z,6.47
2023-04-07T16:51:08.904Z,6.60
2023-04-07T16:53:39.575Z,6.73
2023-04-07T16:56:08.601Z,6.67
2023-04-07T16:58:37.804Z,6.50
2023-04-07T17:01:07.174Z,6.60
2023-04-07T17:03:36.475Z,6.23
2023-04-07T17:06:06.207Z,6.07
2023-04-07T17:08:35.377Z,6.43
2023-04-07T17:11:09.472Z,5.80
2023-04-07T17:13:42.223Z,6.47
2023-04-07T17:16:15.182Z,7.60
2023-04-07T17:18:44.430Z,7.03
2023-04-07T17:21:15.028Z,7.30
2023-04-07T17:23:44.576Z,7.77
2023-04-07T17:26:15.988Z,6.87
2023-04-07T17:28:50.792Z,7.93
2023-04-07T17:31:25.761Z,9.03
2023-04-07T17:33:59.697Z,8.50
2023-04-07T17:36:31.996Z,7.97
2023-04-07T17:39:01.185Z,8.57
2023-04-07T17:41:34.852Z,7.93
2023-04-07T17:44:03.736Z,8.20
2023-04-07T17:46:32.848Z,7.67
2023-04-07T17:49:02.383Z,8.00
2023-04-07T17:51:31.657Z,8.90
2023-04-07T17:54:00.715Z,8.47
2023-04-07T17:56:30.936Z,9.43
2023-04-07T17:59:00.126Z,10.20
2023-04-07T18:01:29.026Z,9.43
2023-04-07T18:03:58.135Z,8.73
2023-04-07T18:06:28.694Z,10.07
2023-04-07T18:08:57.809Z,9.83
2023-04-07T18:11:27.790Z,10.80
2023-04-07T18:14:00.058Z,10.00
2023-04-07T18:16:30.848Z,11.07
2023-04-07T18:19:00.695Z,11.00
2023-04-07T18:21:29.839Z,11.33
2023-04-07T18:24:00.301Z,11.50
2023-04-07T18:26:29.142Z,11.03
2023-04-07T18:29:02.431Z,10.73
2023-04-07T18:31:31.737Z,11.90
2023-04-07T18:34:01.715Z,11.43
2023-04-07T18:36:30.788Z,11.73
2023-04-07T18:39:00.049Z,13.07
2023-04-07T18:41:29.833Z,13.30
2023-04-07T18:44:00.389Z,13.77
2023-04-07T18:46:29.400Z,13.27
2023-04-07T18:48:58.462Z,14.23
2023-04-07T18:51:27.690Z,14.03
2023-04-07T18:53:56.938Z,13.67
2023-04-07T18:56:28.609Z,14.93
2023-04-07T18:58:57.474Z,14.50
2023-04-07T19:01:28.155Z,14.17
2023-04-07T19:03:58.409Z,14.23
2023-04-07T19:06:28.390Z,13.63
2023-04-07T19:08:57.966Z,14.20
2023-04-07T19:11:28.608Z,15.63
2023-04-07T19:13:57.950Z,16.57
2023-04-07T19:16:28.537Z,18.23
2023-04-07T19:18:57.350Z,20.73
2023-04-07T19:21:27.787Z,20.20
2023-04-07T19:23:57.504Z,20.50
2023-04-07T19:26:37.681Z,20.47
2023-04-07T19:29:07.362Z,19.00
2023-04-07T19:31:38.742Z,19.83
2023-04-07T19:34:14.062Z,22.10
2023-04-07T19:36:42.800Z,18.70
2023-04-07T19:39:13.096Z,19.00
2023-04-07T19:41:42.082Z,19.37
2023-04-07T19:44:14.034Z,18.40
2023-04-07T19:46:44.936Z,19.03
2023-04-07T19:49:13.807Z,20.07
2023-04-07T19:51:43.339Z,23.53
2023-04-07T19:54:12.391Z,24.73
2023-04-07T19:56:41.608Z,31.67
2023-04-07T19:59:10.938Z,36.77
2023-04-07T20:01:40.195Z,36.77
2023-04-07T20:04:13.231Z,27.87
2023-04-07T20:06:42.034Z,22.60
2023-04-07T20:09:11.201Z,21.93
2023-04-07T20:11:40.125Z,22.60
2023-04-07T20:14:09.436Z,20.40
2023-04-07T20:16:38.511Z,20.50
2023-04-07T20:19:08.841Z,20.67
2023-04-07T20:21:39.852Z,19.27
2023-04-07T20:24:08.942Z,19.53
2023-04-07T20:26:37.893Z,18.37
2023-04-07T20:29:08.468Z,19.53
2023-04-07T20:31:38.511Z,17.50
2023-04-07T20:34:10.310Z,19.53
2023-04-07T20:36:40.548Z,18.90
2023-04-07T20:39:09.795Z,18.90
2023-04-07T20:41:38.842Z,17.50
2023-04-07T20:44:07.855Z,17.57
2023-04-07T20:46:36.812Z,19.33
2023-04-07T20:49:08.106Z,20.17
2023-04-07T20:51:37.414Z,20.47
2023-04-07T20:54:08.029Z,20.00
2023-04-07T20:56:37.070Z,21.50
2023-04-07T20:59:06.401Z,21.27
2023-04-07T21:01:35.463Z,21.60
2023-04-07T21:04:04.630Z,21.87
2023-04-07T21:06:33.690Z,28.37
2023-04-07T21:09:02.709Z,23.20
2023-04-07T21:11:33.521Z,23.00
2023-04-07T21:14:02.409Z,20.43
2023-04-07T21:16:32.176Z,18.00
2023-04-07T21:19:06.746Z,18.50
2023-04-07T21:21:38.343Z,18.10
2023-04-07T21:24:08.506Z,16.27
2023-04-07T21:26:39.713Z,17.13
2023-04-07T21:29:09.110Z,17.40
2023-04-07T21:31:38.201Z,16.90
2023-04-07T21:34:10.602Z,17.10
2023-04-07T21:36:40.418Z,18.43
2023-04-07T21:39:14.122Z,18.37
2023-04-07T21:41:44.370Z,17.00
2023-04-07T21:44:15.571Z,17.53
2023-04-07T21:46:46.637Z,16.63
2023-04-07T21:49:18.174Z,15.30
2023-04-07T21:51:47.413Z,14.40
2023-04-07T21:54:16.547Z,14.33
2023-04-07T21:56:49.359Z,15.77
2023-04-07T21:59:18.511Z,15.43
2023-04-07T22:01:50.793Z,17.73
2023-04-07T22:04:20.110Z,18.40
2023-04-07T22:06:48.875Z,22.37
2023-04-07T22:09:17.703Z,113.27
2023-04-07T22:11:48.117Z,122.27
2023-04-07T22:14:17.489Z,115.90
2023-04-07T22:16:46.498Z,265.97
2023-04-07T22:19:20.690Z,199.80
2023-04-07T22:21:50.077Z,88.90
2023-04-07T22:24:18.913Z,56.77
2023-04-07T22:26:49.045Z,35.10
2023-04-07T22:29:17.925Z,37.40
2023-04-07T22:31:46.846Z,35.60
2023-04-07T22:34:15.934Z,28.63
2023-04-07T22:36:45.299Z,41.73
2023-04-07T22:39:14.208Z,36.57
2023-04-07T22:41:43.031Z,40.57
2023-04-07T22:44:15.628Z,48.60
2023-04-07T22:46:44.326Z,54.50
2023-04-07T22:49:13.107Z,72.13
2023-04-07T22:51:48.578Z,75.43
2023-04-07T22:54:17.885Z,92.37
2023-04-07T22:56:46.732Z,86.00
2023-04-07T22:59:17.065Z,75.27
2023-04-07T23:01:45.880Z,85.30
2023-04-07T23:04:14.713Z,80.83
2023-04-07T23:06:43.842Z,98.87
2023-04-07T23:09:12.835Z,127.43
2023-04-07T23:11:42.158Z,85.77
2023-04-07T23:14:11.476Z,64.87
2023-04-07T23:16:41.603Z,66.07
2023-04-07T23:19:11.895Z,68.23
2023-04-07T23:21:40.954Z,50.73
2023-04-07T23:24:09.592Z,57.00
2023-04-07T23:26:38.495Z,48.20
2023-04-07T23:29:07.148Z,50.33
2023-04-07T23:31:36.158Z,39.20
2023-04-07T23:34:06.441Z,34.53
2023-04-07T23:36:35.385Z,27.23
2023-04-07T23:39:04.122Z,31.60
2023-04-07T23:41:33.295Z,34.20
2023-04-07T23:44:02.590Z,21.60
2023-04-07T23:46:31.484Z,23.67
2023-04-07T23:49:00.207Z,27.90
2023-04-07T23:51:30.909Z,32.40
2023-04-07T23:53:59.469Z,26.57
2023-04-07T23:56:29.070Z,30.77
2023-04-07T23:58:57.909Z,21.07
